createdAt,value
2023-03-01T00:01:32.759Z,55.33
2023-03-01T00:04:01.220Z,57.15
2023-03-01T00:06:29.534Z,53.58
2023-03-01T00:08:56.926Z,62.28
2023-03-01T00:11:27.638Z,57.17
2023-03-01T00:13:59.324Z,58.20
2023-03-01T00:16:40.571Z,56.13
2023-03-01T00:19:15.027Z,59.60
2023-03-01T00:21:43.923Z,56.70
2023-03-01T00:24:11.885Z,50.97
2023-03-01T00:26:39.214Z,47.50
2023-03-01T00:29:06.837Z,47.03
2023-03-01T00:31:37.335Z,54.60
2023-03-01T00:34:43.428Z,53.43
2023-03-01T00:37:41.188Z,50.65
2023-03-01T00:41:52.173Z,53.90
2023-03-01T00:43:59.081Z,51.45
2023-03-01T00:46:28.464Z,54.13
2023-03-01T00:48:55.696Z,51.42
2023-03-01T00:51:26.959Z,53.08
2023-03-01T00:53:58.301Z,50.75
2023-03-01T00:56:37.955Z,45.35
2023-03-01T00:59:05.185Z,48.38
2023-03-01T01:01:32.940Z,47.83
2023-03-01T01:04:14.197Z,56.28
2023-03-01T01:06:48.024Z,50.00
2023-03-01T01:12:15.547Z,55.45
2023-03-01T01:14:42.917Z,54.60
2023-03-01T01:17:10.409Z,63.90
2023-03-01T01:19:37.790Z,61.70
2023-03-01T01:22:05.013Z,52.83
2023-03-01T01:24:34.132Z,58.97
2023-03-01T01:27:01.230Z,57.42
2023-03-01T01:29:29.045Z,58.53
2023-03-01T01:31:56.435Z,60.28
2023-03-01T01:34:23.868Z,61.17
2023-03-01T01:36:55.138Z,66.88
2023-03-01T01:39:23.767Z,55.53
2023-03-01T01:41:51.161Z,56.83
2023-03-01T01:44:30.202Z,57.10
2023-03-01T01:47:06.047Z,56.22
2023-03-01T01:49:40.193Z,58.92
2023-03-01T01:52:26.460Z,59.58
2023-03-01T01:55:17.878Z,61.28
2023-03-01T01:57:51.239Z,62.67
2023-03-01T02:00:26.103Z,63.67
2023-03-01T02:03:01.372Z,63.60
2023-03-01T02:06:04.765Z,64.97
2023-03-01T02:08:36.417Z,65.32
2023-03-01T02:11:05.516Z,63.00
2023-03-01T02:13:34.982Z,60.75
2023-03-01T02:16:24.232Z,65.47
2023-03-01T02:18:55.252Z,55.70
2023-03-01T02:22:10.658Z,60.15
2023-03-01T02:25:05.316Z,58.58
2023-03-01T02:28:36.095Z,52.20
2023-03-01T02:31:26.604Z,53.00
2023-03-01T02:33:56.336Z,55.53
2023-03-01T02:36:31.845Z,55.88
2023-03-01T02:39:07.240Z,55.03
2023-03-01T02:41:43.631Z,53.75
2023-03-01T02:44:10.831Z,52.95
2023-03-01T02:46:48.079Z,58.50
2023-03-01T02:49:30.046Z,49.30
2023-03-01T02:52:31.612Z,51.22
2023-03-01T02:55:18.626Z,59.65
2023-03-01T02:57:52.278Z,57.85
2023-03-01T03:00:27.766Z,55.53
2023-03-01T03:02:58.382Z,62.35
2023-03-01T03:05:31.904Z,59.35
2023-03-01T03:08:02.823Z,65.72
2023-03-01T03:10:46.639Z,53.38
2023-03-01T03:13:15.541Z,63.20
2023-03-01T03:15:44.945Z,56.25
2023-03-01T03:18:17.209Z,63.00
2023-03-01T03:20:46.135Z,59.88
2023-03-01T03:23:14.284Z,58.92
2023-03-01T03:25:41.538Z,63.60
2023-03-01T03:28:11.750Z,54.05
2023-03-01T03:30:44.233Z,55.88
2023-03-01T03:33:13.977Z,65.72
2023-03-01T03:35:45.946Z,58.00
2023-03-01T03:38:18.948Z,55.70
2023-03-01T03:40:51.461Z,55.83
2023-03-01T03:43:24.052Z,57.00
2023-03-01T03:45:53.081Z,53.30
2023-03-01T03:48:21.085Z,61.15
2023-03-01T03:50:56.877Z,63.47
2023-03-01T03:53:36.319Z,62.50
2023-03-01T03:56:05.180Z,60.17
2023-03-01T03:58:33.783Z,60.58
2023-03-01T04:01:01.857Z,64.07
2023-03-01T04:03:31.456Z,65.95
2023-03-01T04:06:07.087Z,62.97
2023-03-01T04:08:34.564Z,56.38
2023-03-01T04:11:25.471Z,60.03
2023-03-01T04:13:59.898Z,55.22
2023-03-01T04:16:27.461Z,57.50
2023-03-01T04:18:54.601Z,49.03
2023-03-01T04:21:22.669Z,57.28
2023-03-01T04:23:53.815Z,63.30
2023-03-01T04:26:21.209Z,58.13
2023-03-01T04:28:50.395Z,59.17
2023-03-01T04:31:22.165Z,56.88
2023-03-01T04:33:56.972Z,61.97
2023-03-01T04:36:28.313Z,59.05
2023-03-01T04:38:58.978Z,59.07
2023-03-01T04:41:40.955Z,56.70
2023-03-01T04:44:21.189Z,62.55
2023-03-01T04:47:04.154Z,59.72
2023-03-01T04:50:04.916Z,66.50
2023-03-01T04:53:08.852Z,66.25
2023-03-01T04:55:49.367Z,58.38
2023-03-01T04:58:16.971Z,64.32
2023-03-01T05:00:44.312Z,51.88
2023-03-01T05:03:11.494Z,55.65
2023-03-01T05:05:49.567Z,60.35
2023-03-01T05:08:19.773Z,56.22
2023-03-01T05:11:13.889Z,57.40
2023-03-01T05:14:17.059Z,57.78
2023-03-01T05:16:44.801Z,59.08
2023-03-01T05:19:16.533Z,63.20
2023-03-01T05:22:03.240Z,55.92
2023-03-01T05:24:33.663Z,61.30
2023-03-01T05:27:02.650Z,64.82
2023-03-01T05:29:34.625Z,53.92
2023-03-01T05:34:36.582Z,58.67
2023-03-01T05:37:04.075Z,60.65
2023-03-01T05:39:32.795Z,63.85
2023-03-01T05:42:02.634Z,57.00
2023-03-01T05:44:31.332Z,71.05
2023-03-01T05:46:59.849Z,69.00
2023-03-01T05:49:27.409Z,74.10
2023-03-01T05:51:54.912Z,65.57
2023-03-01T05:54:23.028Z,73.63
2023-03-01T05:56:50.148Z,75.05
2023-03-01T05:59:21.179Z,79.80
2023-03-01T06:01:48.441Z,85.28
2023-03-01T06:04:18.786Z,72.55
2023-03-01T06:08:22.896Z,73.07
2023-03-01T06:10:25.257Z,70.97
2023-03-01T06:12:52.767Z,71.25
2023-03-01T06:15:20.008Z,67.75
2023-03-01T06:26:23.246Z,67.68
2023-03-01T06:28:53.803Z,64.47
2023-03-01T06:31:22.261Z,71.22
2023-03-01T06:33:49.343Z,70.97
2023-03-01T06:36:19.705Z,58.90
2023-03-01T06:38:48.083Z,65.22
2023-03-01T06:41:35.272Z,65.15
2023-03-01T06:44:08.370Z,62.97
2023-03-01T06:46:55.120Z,64.03
2023-03-01T06:49:50.518Z,64.25
2023-03-01T06:55:43.200Z,62.45
2023-03-01T06:58:11.433Z,58.00
2023-03-01T07:00:38.682Z,56.65
2023-03-01T07:03:52.845Z,57.17
2023-03-01T07:09:41.663Z,57.25
2023-03-01T07:15:25.271Z,58.40
2023-03-01T07:17:58.925Z,56.13
2023-03-01T07:20:26.582Z,64.60
2023-03-01T07:22:55.698Z,64.68
2023-03-01T07:25:22.977Z,68.50
2023-03-01T07:27:53.594Z,62.97
2023-03-01T07:31:30.953Z,64.00
2023-03-01T07:34:04.250Z,70.70
2023-03-01T07:36:43.642Z,61.90
2023-03-01T07:39:13.495Z,65.22
2023-03-01T07:41:42.203Z,64.25
2023-03-01T07:44:10.521Z,62.97
2023-03-01T07:46:38.828Z,63.78
2023-03-01T07:49:06.504Z,63.38
2023-03-01T07:51:33.770Z,57.92
2023-03-01T07:54:00.868Z,61.55
2023-03-01T07:56:28.517Z,59.95
2023-03-01T07:58:56.096Z,61.13
2023-03-01T08:01:48.562Z,60.08
2023-03-01T08:04:19.464Z,64.45
2023-03-01T08:06:46.506Z,61.92
2023-03-01T08:09:14.603Z,61.83
2023-03-01T08:11:42.038Z,70.15
2023-03-01T08:14:43.989Z,61.83
2023-03-01T08:17:24.659Z,68.20
2023-03-01T08:24:40.996Z,62.45
2023-03-01T08:27:08.241Z,62.67
2023-03-01T08:29:35.899Z,54.95
2023-03-01T08:32:03.067Z,73.75
2023-03-01T08:34:32.453Z,60.50
2023-03-01T08:36:59.565Z,55.78
2023-03-01T08:39:26.680Z,66.55
2023-03-01T08:41:54.025Z,77.93
2023-03-01T08:44:22.056Z,65.60
2023-03-01T08:46:52.420Z,62.85
2023-03-01T08:49:21.615Z,67.40
2023-03-01T08:51:49.559Z,63.90
2023-03-01T08:54:21.322Z,59.75
2023-03-01T08:56:49.738Z,60.13
2023-03-01T08:59:20.471Z,60.28
2023-03-01T09:01:47.592Z,58.67
2023-03-01T09:04:17.024Z,56.35
2023-03-01T09:06:44.815Z,57.42
2023-03-01T09:09:17.278Z,64.47
2023-03-01T09:14:15.979Z,63.00
2023-03-01T09:16:44.179Z,55.55
2023-03-01T09:19:12.117Z,56.83
2023-03-01T09:26:20.314Z,57.70
2023-03-01T09:28:51.208Z,62.05
2023-03-01T09:31:21.306Z,50.58
2023-03-01T09:33:53.304Z,57.40
2023-03-01T09:36:24.410Z,56.60
2023-03-01T09:38:54.086Z,55.63
2023-03-01T09:41:43.391Z,53.47
2023-03-01T09:48:42.532Z,57.65
2023-03-01T09:51:20.592Z,60.85
2023-03-01T09:53:47.878Z,52.03
2023-03-01T09:57:10.976Z,52.85
2023-03-01T10:00:23.960Z,53.05
2023-03-01T10:03:01.117Z,53.65
2023-03-01T10:05:53.917Z,55.65
2023-03-01T10:13:50.154Z,56.95
2023-03-01T10:16:37.810Z,64.32
2023-03-01T10:19:10.609Z,69.78
2023-03-01T10:21:45.715Z,59.88
2023-03-01T10:24:21.010Z,57.00
2023-03-01T10:27:15.471Z,61.53
2023-03-01T10:30:21.111Z,52.72
2023-03-01T10:32:54.393Z,50.33
2023-03-01T10:35:29.380Z,51.80
2023-03-01T10:38:09.661Z,52.70
2023-03-01T10:40:52.014Z,46.75
2023-03-01T10:45:48.981Z,43.03
2023-03-01T10:48:35.686Z,58.13
2023-03-01T10:51:29.689Z,40.03
2023-03-01T10:53:57.058Z,42.05
2023-03-01T10:56:26.440Z,43.30
2023-03-01T10:59:02.388Z,42.83
2023-03-01T11:01:36.844Z,44.83
2023-03-01T11:04:15.065Z,39.17
2023-03-01T11:06:54.869Z,38.85
2023-03-01T11:09:46.050Z,37.63
2023-03-01T11:12:16.976Z,37.85
2023-03-01T11:14:56.437Z,44.00
2023-03-01T11:17:36.555Z,37.83
2023-03-01T11:20:14.788Z,40.00
2023-03-01T11:22:56.097Z,40.67
2023-03-01T11:25:33.976Z,38.53
2023-03-01T11:28:05.196Z,38.03
2023-03-01T11:30:42.538Z,42.28
2023-03-01T11:33:09.739Z,35.25
2023-03-01T11:35:48.731Z,36.47
2023-03-01T11:38:26.595Z,34.63
2023-03-01T11:41:06.992Z,35.38
2023-03-01T11:44:19.788Z,35.72
2023-03-01T11:47:30.893Z,33.00
2023-03-01T11:50:40.947Z,57.80
2023-03-01T11:53:27.237Z,35.38
2023-03-01T11:56:37.947Z,27.77
2023-03-01T11:59:24.237Z,25.98
2023-03-01T12:02:17.275Z,26.80
2023-03-01T12:05:25.170Z,26.50
2023-03-01T12:08:27.885Z,25.15
2023-03-01T12:11:10.723Z,24.08
2023-03-01T12:14:25.433Z,25.17
2023-03-01T12:17:32.485Z,36.17
2023-03-01T12:20:32.059Z,27.55
2023-03-01T12:28:29.462Z,24.15
2023-03-01T12:31:49.437Z,24.05
2023-03-01T12:34:50.781Z,24.40
2023-03-01T12:37:42.464Z,28.27
2023-03-01T12:40:57.417Z,24.45
2023-03-01T12:43:53.110Z,28.38
2023-03-01T12:47:07.992Z,23.85
2023-03-01T12:49:48.285Z,28.05
2023-03-01T12:52:52.585Z,26.20
2023-03-01T12:55:38.578Z,25.50
2023-03-01T12:58:25.617Z,31.55
2023-03-01T13:01:21.145Z,32.60
2023-03-01T13:04:37.646Z,32.42
2023-03-01T13:07:35.828Z,28.27
2023-03-01T13:10:35.325Z,28.60
2023-03-01T13:13:10.174Z,35.53
2023-03-01T13:15:40.440Z,33.92
2023-03-01T13:18:16.339Z,27.30
2023-03-01T13:20:56.431Z,31.45
2023-03-01T13:23:37.789Z,25.85
2023-03-01T13:26:19.000Z,27.52
2023-03-01T13:28:46.989Z,28.00
2023-03-01T13:31:20.351Z,28.75
2023-03-01T13:37:51.081Z,30.83
2023-03-01T13:40:19.838Z,29.13
2023-03-01T13:43:04.220Z,40.17
2023-03-01T13:45:44.684Z,29.27
2023-03-01T13:48:32.253Z,33.17
2023-03-01T13:51:04.481Z,26.70
2023-03-01T13:53:40.241Z,44.15
2023-03-01T13:56:16.366Z,23.98
2023-03-01T13:59:08.083Z,32.70
2023-03-01T14:01:37.478Z,36.33
2023-03-01T14:04:21.884Z,31.65
2023-03-01T14:06:49.192Z,30.15
2023-03-01T14:09:28.309Z,28.17
2023-03-01T14:12:45.054Z,28.50
2023-03-01T14:15:34.685Z,32.85
2023-03-01T14:18:16.904Z,24.65
2023-03-01T14:20:52.059Z,28.75
2023-03-01T14:23:24.252Z,24.15
2023-03-01T14:25:58.397Z,33.17
2023-03-01T14:28:32.008Z,35.65
2023-03-01T14:31:01.812Z,29.27
2023-03-01T14:33:37.476Z,34.90
2023-03-01T14:36:14.071Z,31.17
2023-03-01T14:38:43.427Z,27.88
2023-03-01T14:45:53.636Z,35.90
2023-03-01T14:48:32.052Z,29.35
2023-03-01T14:51:01.293Z,29.38
2023-03-01T14:53:34.115Z,28.60
2023-03-01T14:56:05.363Z,38.45
2023-03-01T14:58:35.009Z,35.80
2023-03-01T15:01:06.981Z,27.77
2023-03-01T15:03:47.487Z,34.92
2023-03-01T15:06:24.447Z,28.70
2023-03-01T15:08:57.995Z,28.40
2023-03-01T15:11:32.151Z,33.28
2023-03-01T15:14:00.676Z,29.13
2023-03-01T15:16:35.126Z,32.78
2023-03-01T15:19:07.328Z,30.25
2023-03-01T15:24:20.425Z,38.27
2023-03-01T15:27:07.796Z,30.52
2023-03-01T15:29:41.486Z,35.88
2023-03-01T15:32:37.676Z,31.27
2023-03-01T15:35:42.888Z,36.05
2023-03-01T15:38:50.980Z,32.63
2023-03-01T15:41:49.389Z,34.85
2023-03-01T15:44:42.679Z,40.25
2023-03-01T15:47:27.686Z,31.30
2023-03-01T15:49:57.064Z,34.33
2023-03-01T15:52:30.497Z,27.17
2023-03-01T15:55:04.524Z,77.60
2023-03-01T15:57:31.780Z,32.30
2023-03-01T15:59:59.031Z,32.25
2023-03-01T16:03:25.304Z,35.45
2023-03-01T16:05:52.866Z,34.38
2023-03-01T16:08:20.840Z,37.65
2023-03-01T16:10:50.878Z,26.95
2023-03-01T16:13:18.750Z,32.30
2023-03-01T16:15:49.769Z,30.75
2023-03-01T16:18:17.237Z,39.50
2023-03-01T16:20:45.137Z,29.60
2023-03-01T16:23:12.789Z,31.20
2023-03-01T16:25:40.187Z,36.47
2023-03-01T16:28:12.022Z,40.25
2023-03-01T16:30:40.724Z,41.38
2023-03-01T16:33:28.768Z,38.65
2023-03-01T16:35:56.886Z,32.75
2023-03-01T16:38:24.189Z,46.25
2023-03-01T16:40:53.032Z,45.40
2023-03-01T16:43:20.588Z,37.42
2023-03-01T16:45:47.965Z,38.33
2023-03-01T16:48:16.531Z,41.67
2023-03-01T16:50:44.444Z,44.35
2023-03-01T16:53:11.592Z,44.67
2023-03-01T16:55:46.372Z,62.83
2023-03-01T16:58:13.660Z,53.20
2023-03-01T17:00:40.666Z,50.88
2023-03-01T17:03:09.431Z,46.63
2023-03-01T17:10:20.030Z,47.28
2023-03-01T17:16:27.899Z,43.22
2023-03-01T17:20:17.304Z,48.65
2023-03-01T17:23:10.572Z,41.58
2023-03-01T17:28:10.426Z,38.55
2023-03-01T17:31:12.067Z,32.40
2023-03-01T17:35:21.223Z,43.97
2023-03-01T17:39:14.726Z,36.53
2023-03-01T17:51:49.531Z,51.92
2023-03-01T17:54:17.247Z,66.00
2023-03-01T17:56:46.903Z,57.83
2023-03-01T18:07:28.740Z,59.78
2023-03-01T18:14:17.376Z,67.05
2023-03-01T18:16:44.789Z,70.07
2023-03-01T18:19:13.266Z,64.78
2023-03-01T18:21:40.640Z,73.70
2023-03-01T18:24:08.333Z,89.78
2023-03-01T18:26:35.999Z,95.85
2023-03-01T18:29:04.780Z,93.88
2023-03-01T18:31:33.626Z,87.65
2023-03-01T18:34:01.496Z,104.40
2023-03-01T18:36:35.706Z,86.10
2023-03-01T18:39:06.686Z,95.30
2023-03-01T18:41:34.612Z,100.00
2023-03-01T18:44:04.290Z,105.10
2023-03-01T18:46:35.953Z,93.22
2023-03-01T18:49:04.645Z,89.53
2023-03-01T18:51:32.136Z,84.55
2023-03-01T18:53:59.799Z,91.10
2023-03-01T18:56:30.303Z,90.07
2023-03-01T18:58:59.468Z,83.28
2023-03-01T19:01:30.044Z,90.30
2023-03-01T19:05:41.063Z,94.13
2023-03-01T19:08:08.202Z,105.13
2023-03-01T19:10:35.577Z,121.55
2023-03-01T19:13:02.649Z,107.47
2023-03-01T19:15:29.697Z,102.32
2023-03-01T19:17:58.959Z,100.95
2023-03-01T19:20:26.140Z,84.60
2023-03-01T19:23:35.032Z,89.25
2023-03-01T19:26:08.505Z,85.38
2023-03-01T19:28:39.761Z,84.93
2023-03-01T19:31:12.265Z,93.37
2023-03-01T19:33:42.493Z,80.57
2023-03-01T19:36:12.503Z,84.85
2023-03-01T19:38:41.985Z,78.10
2023-03-01T19:44:48.101Z,79.50
2023-03-01T19:47:15.769Z,78.70
2023-03-01T19:49:43.019Z,77.78
2023-03-01T19:52:11.068Z,70.03
2023-03-01T19:54:38.559Z,73.70
2023-03-01T19:57:05.802Z,79.72
2023-03-01T19:59:33.094Z,72.38
2023-03-01T20:02:00.625Z,76.10
2023-03-01T20:04:28.129Z,70.28
2023-03-01T20:06:55.696Z,64.35
2023-03-01T20:09:22.883Z,67.00
2023-03-01T20:11:51.649Z,69.63
2023-03-01T20:14:22.344Z,75.03
2023-03-01T20:16:50.920Z,70.55
2023-03-01T20:19:17.924Z,61.53
2023-03-01T20:21:45.217Z,61.60
2023-03-01T20:24:15.033Z,55.80
2023-03-01T20:26:42.392Z,60.13
2023-03-01T20:29:09.816Z,67.25
2023-03-01T20:31:37.679Z,61.30
2023-03-01T20:34:04.980Z,61.03
2023-03-01T20:36:32.354Z,59.83
2023-03-01T20:38:59.648Z,57.92
2023-03-01T20:41:26.964Z,57.03
2023-03-01T20:43:56.574Z,58.25
2023-03-01T20:46:26.667Z,58.60
2023-03-01T20:48:54.320Z,55.63
2023-03-01T20:51:21.999Z,61.22
2023-03-01T20:53:49.730Z,60.20
2023-03-01T20:56:19.408Z,72.22
2023-03-01T20:59:08.262Z,60.83
2023-03-01T21:01:37.944Z,70.75
2023-03-01T21:04:06.257Z,58.38
2023-03-01T21:07:37.987Z,51.05
2023-03-01T21:10:05.584Z,59.40
2023-03-01T21:12:32.666Z,54.47
2023-03-01T21:15:00.050Z,59.25
2023-03-01T21:17:27.178Z,55.78
2023-03-01T21:19:54.790Z,56.97
2023-03-01T21:22:22.162Z,60.33
2023-03-01T21:24:52.144Z,58.40
2023-03-01T21:27:19.754Z,48.60
2023-03-01T21:29:47.379Z,52.08
2023-03-01T21:32:14.864Z,56.75
2023-03-01T21:34:42.211Z,53.88
2023-03-01T21:37:10.657Z,52.72
2023-03-01T21:39:38.517Z,56.78
2023-03-01T21:42:06.256Z,54.15
2023-03-01T21:44:35.553Z,55.20
2023-03-01T21:47:02.920Z,60.65
2023-03-01T21:49:30.972Z,55.90
2023-03-01T21:52:04.757Z,52.42
2023-03-01T22:08:55.204Z,51.53
2023-03-01T22:11:26.215Z,68.57
2023-03-01T22:13:56.213Z,63.53
2023-03-01T22:16:31.049Z,66.15
2023-03-01T22:18:59.658Z,59.92
2023-03-01T22:21:28.168Z,69.95
2023-03-01T22:23:56.308Z,60.63
2023-03-01T22:26:31.580Z,71.82
2023-03-01T22:29:03.070Z,71.22
2023-03-01T22:31:31.321Z,62.15
2023-03-01T22:33:59.024Z,71.68
2023-03-01T22:36:27.838Z,73.78
2023-03-01T22:39:00.534Z,67.90
2023-03-01T22:41:34.871Z,64.55
2023-03-01T22:44:02.320Z,67.97
2023-03-01T22:46:30.991Z,70.57
2023-03-01T22:49:01.733Z,66.63
2023-03-01T22:51:33.906Z,77.00
2023-03-01T22:54:04.633Z,67.00
2023-03-01T22:56:36.629Z,66.85
2023-03-01T22:59:12.074Z,60.85
2023-03-01T23:01:42.597Z,65.45
2023-03-01T23:04:09.709Z,66.05
2023-03-01T23:06:50.210Z,69.47
2023-03-01T23:09:36.915Z,60.08
2023-03-01T23:12:07.472Z,68.18
2023-03-01T23:14:36.005Z,71.80
2023-03-01T23:17:03.889Z,72.53
2023-03-01T23:19:32.096Z,69.15
2023-03-01T23:21:59.459Z,60.30
2023-03-01T23:24:31.804Z,65.55
2023-03-01T23:27:01.689Z,62.33
2023-03-01T23:29:28.959Z,62.38
2023-03-01T23:31:58.090Z,72.22
2023-03-01T23:34:27.036Z,67.07
2023-03-01T23:36:55.520Z,65.38
2023-03-01T23:39:23.017Z,66.82
2023-03-01T23:41:50.782Z,68.63
2023-03-01T23:44:21.068Z,63.30
2023-03-01T23:46:50.073Z,65.45
2023-03-01T23:49:20.494Z,72.68
2023-03-01T23:51:48.094Z,67.30
2023-03-01T23:54:22.809Z,69.68
2023-03-01T23:56:50.345Z,76.65
2023-03-01T23:59:23.755Z,66.82
